Time;durP1;ratioP1;P1;durP2;ratioP2;P2;SDS_P1;SDS_P2;PMS_P1;PMS_P2;Temp;Humidity;BMP_temperature;BMP_pressure;BME280_temperature;BME280_humidity;BME280_pressure;Samples;Min_cycle;Max_cycle;Signal;HPM_P1;HPM_P2
2023/12/14 00:00:13;;;;;;;;;;;15.90;99.90;;;;;;5113423;28;19908;-83
2023/12/14 00:02:38;;;;;;;;;;;15.80;99.90;;;;;;5114389;28;20070;-83
2023/12/14 00:05:04;;;;;;;;;;;15.80;99.90;;;;;;5113222;28;20084;-83
2023/12/14 00:07:30;;;;;;;;;;;15.70;99.90;;;;;;5113689;28;19908;-84
2023/12/14 00:09:58;;;;;;;;;;;15.60;99.90;;;;;;5113151;28;20293;-83
2023/12/14 00:12:24;;;;;;;;;;;15.60;99.90;;;;;;5113672;28;19907;-83
2023/12/14 00:14:50;;;;;;;;;;;15.70;99.90;;;;;;5113355;28;19977;-83
2023/12/14 00:17:16;;;;;;;;;;;15.60;99.90;;;;;;5113430;28;19908;-83
2023/12/14 00:19:42;;;;;;;;;;;15.60;99.90;;;;;;5094731;28;20393;-83
2023/12/14 00:22:08;;;;;;;;;;;15.60;99.90;;;;;;5128629;27;20329;-83
2023/12/14 00:24:34;;;;;;;;;;;15.70;99.90;;;;;;5113444;28;19999;-83
2023/12/14 00:26:59;;;;;;;;;;;15.70;99.90;;;;;;5112737;28;19915;-83
2023/12/14 00:29:25;;;;;;;;;;;15.60;99.90;;;;;;5112388;28;20205;-84
2023/12/14 00:31:51;;;;;;;;;;;15.60;99.90;;;;;;5094408;28;20425;-84
2023/12/14 00:34:17;;;;;;;;;;;15.60;99.90;;;;;;5075258;28;19935;-83
2023/12/14 00:36:43;;;;;;;;;;;15.60;99.90;;;;;;5074442;28;20327;-83
2023/12/14 00:39:09;;;;;;;;;;;15.60;99.90;;;;;;5092191;28;19920;-83
2023/12/14 00:41:35;;;;;;;;;;;15.60;99.90;;;;;;5092748;28;19912;-83
2023/12/14 00:44:00;;;;;;;;;;;15.70;99.90;;;;;;5092210;28;19908;-82
2023/12/14 00:46:26;;;;;;;;;;;15.60;99.90;;;;;;5092362;28;19934;-82
2023/12/14 00:48:52;;;;;;;;;;;15.60;99.90;;;;;;5092194;28;20080;-82
2023/12/14 00:51:18;;;;;;;;;;;15.60;99.90;;;;;;5101461;28;19918;-81
2023/12/14 00:53:44;;;;;;;;;;;15.60;99.90;;;;;;5094215;28;20002;-82
2023/12/14 00:56:09;;;;;;;;;;;15.60;99.90;;;;;;5093786;28;20327;-82
2023/12/14 00:58:35;;;;;;;;;;;15.60;99.90;;;;;;5112027;28;19920;-83
2023/12/14 01:01:01;;;;;;;;;;;15.60;99.90;;;;;;5093945;28;19926;-83
2023/12/14 01:03:28;;;;;;;;;;;15.60;99.90;;;;;;5111326;28;19918;-83
2023/12/14 01:05:54;;;;;;;;;;;15.60;99.90;;;;;;5111338;28;20309;-84
2023/12/14 01:08:20;;;;;;;;;;;15.60;99.90;;;;;;5111316;28;20010;-83
2023/12/14 01:10:45;;;;;;;;;;;15.60;99.90;;;;;;5111309;28;19935;-83
2023/12/14 01:13:11;;;;;;;;;;;15.60;99.90;;;;;;5093455;28;20248;-82
2023/12/14 01:15:37;;;;;;;;;;;15.60;99.90;;;;;;5111391;28;20343;-84
2023/12/14 01:18:03;;;;;;;;;;;15.70;99.90;;;;;;5111143;28;19912;-84
2023/12/14 01:20:29;;;;;;;;;;;15.70;99.90;;;;;;5092402;28;19908;-83
2023/12/14 01:22:55;;;;;;;;;;;15.80;99.90;;;;;;5111308;28;19952;-83
2023/12/14 01:25:20;;;;;;;;;;;15.80;99.90;;;;;;5111207;28;19923;-83
2023/12/14 01:27:46;;;;;;;;;;;15.80;99.90;;;;;;5111105;28;19919;-83
2023/12/14 01:30:12;;;;;;;;;;;15.80;99.90;;;;;;5111314;28;20040;-83
2023/12/14 01:32:38;;;;;;;;;;;15.80;99.90;;;;;;5111533;28;20026;-82
2023/12/14 01:35:04;;;;;;;;;;;15.70;99.90;;;;;;5092771;28;19908;-83
2023/12/14 01:37:30;;;;;;;;;;;15.70;99.90;;;;;;5111036;28;19922;-83
2023/12/14 01:39:56;;;;;;;;;;;15.70;99.90;;;;;;5111447;28;20306;-82
2023/12/14 01:42:22;;;;;;;;;;;15.70;99.90;;;;;;5111411;28;19912;-83
2023/12/14 01:44:47;;;;;;;;;;;15.70;99.90;;;;;;5093319;28;19935;-82
2023/12/14 01:47:13;;;;;;;;;;;15.70;99.90;;;;;;5110905;28;19908;-83
2023/12/14 01:49:41;;;;;;;;;;;15.70;99.90;;;;;;5110704;28;20320;-83
2023/12/14 01:52:07;;;;;;;;;;;15.80;99.90;;;;;;5092303;28;19908;-82
2023/12/14 01:54:33;;;;;;;;;;;15.70;99.90;;;;;;5110613;28;20038;-84
2023/12/14 01:56:59;;;;;;;;;;;15.70;99.90;;;;;;5110849;28;20064;-82
2023/12/14 01:59:25;;;;;;;;;;;15.70;99.90;;;;;;5092177;28;19984;-83
2023/12/14 02:01:56;;;;;;;;;;;15.70;99.90;;;;;;5110624;28;20336;-83
2023/12/14 02:04:22;;;;;;;;;;;15.70;99.90;;;;;;5091750;28;19919;-82
2023/12/14 02:06:48;;;;;;;;;;;15.70;99.90;;;;;;5091748;28;19908;-83
2023/12/14 02:09:14;;;;;;;;;;;15.70;99.90;;;;;;5110610;28;19912;-82
2023/12/14 02:11:41;;;;;;;;;;;15.70;99.90;;;;;;5110937;28;20006;-82
2023/12/14 02:14:08;;;;;;;;;;;15.70;99.90;;;;;;5091689;28;19944;-82
2023/12/14 02:16:34;;;;;;;;;;;15.60;99.90;;;;;;5110597;28;20011;-83
2023/12/14 02:19:00;;;;;;;;;;;15.60;99.90;;;;;;5091703;28;20416;-82
2023/12/14 02:21:26;;;;;;;;;;;15.50;99.90;;;;;;5110355;28;19919;-82
2023/12/14 02:23:52;;;;;;;;;;;15.40;99.90;;;;;;5091639;28;20395;-83
2023/12/14 02:26:18;;;;;;;;;;;15.40;99.90;;;;;;5091869;28;19964;-82
2023/12/14 02:28:43;;;;;;;;;;;15.30;99.90;;;;;;5110316;28;19908;-83
2023/12/14 02:31:09;;;;;;;;;;;15.20;99.90;;;;;;5092017;28;19919;-84
2023/12/14 02:33:35;;;;;;;;;;;15.10;99.90;;;;;;5110355;28;19908;-83
2023/12/14 02:36:03;;;;;;;;;;;15.10;99.90;;;;;;5091870;28;19965;-83
2023/12/14 02:38:29;;;;;;;;;;;15.10;99.90;;;;;;5110366;28;19923;-83
2023/12/14 02:40:55;;;;;;;;;;;15.00;99.90;;;;;;5110385;28;19915;-83
2023/12/14 02:43:23;;;;;;;;;;;15.00;99.90;;;;;;5091772;28;19908;-83
2023/12/14 02:45:49;;;;;;;;;;;15.00;99.90;;;;;;5093103;28;20049;-83
2023/12/14 02:48:14;;;;;;;;;;;15.00;99.90;;;;;;5109943;28;19908;-79
2023/12/14 02:50:40;;;;;;;;;;;15.00;99.90;;;;;;5102133;28;19963;-84
2023/12/14 02:53:06;;;;;;;;;;;15.00;99.90;;;;;;5112807;28;20405;-84
2023/12/14 02:55:32;;;;;;;;;;;15.00;99.90;;;;;;5114209;28;19908;-84
2023/12/14 02:57:58;;;;;;;;;;;15.00;99.90;;;;;;5095206;28;19950;-83
2023/12/14 03:00:24;;;;;;;;;;;15.00;99.90;;;;;;5113884;28;20368;-83
2023/12/14 03:02:50;;;;;;;;;;;15.00;99.90;;;;;;5110568;28;19908;-83
2023/12/14 03:05:15;;;;;;;;;;;15.00;99.90;;;;;;5113906;28;20276;-83
2023/12/14 03:07:41;;;;;;;;;;;15.00;99.90;;;;;;5113763;28;19907;-83
2023/12/14 03:10:07;;;;;;;;;;;15.00;99.90;;;;;;5095288;28;19915;-81
2023/12/14 03:12:33;;;;;;;;;;;14.90;99.90;;;;;;5095015;28;19911;-83
2023/12/14 03:15:00;;;;;;;;;;;15.00;99.90;;;;;;5095185;28;19998;-82
2023/12/14 03:17:26;;;;;;;;;;;15.00;99.90;;;;;;5113692;28;19954;-82
2023/12/14 03:19:51;;;;;;;;;;;15.00;99.90;;;;;;5128718;27;19947;-83
2023/12/14 03:22:17;;;;;;;;;;;15.10;99.90;;;;;;5113216;28;19911;-82
2023/12/14 03:24:43;;;;;;;;;;;15.10;99.90;;;;;;5113851;28;20340;-82
2023/12/14 03:27:09;;;;;;;;;;;15.10;99.90;;;;;;5113397;28;19908;-80
2023/12/14 03:29:35;;;;;;;;;;;15.10;99.90;;;;;;5113306;28;20364;-82
2023/12/14 03:32:00;;;;;;;;;;;15.10;99.90;;;;;;5112977;28;19920;-81
2023/12/14 03:34:26;;;;;;;;;;;15.10;99.90;;;;;;5071142;28;19927;-82
2023/12/14 03:36:52;;;;;;;;;;;15.10;99.90;;;;;;5074862;28;19939;-82
2023/12/14 03:39:18;;;;;;;;;;;15.00;99.90;;;;;;5092597;28;20382;-82
2023/12/14 03:41:44;;;;;;;;;;;15.10;99.90;;;;;;5092781;28;20006;-83
2023/12/14 03:44:10;;;;;;;;;;;15.00;99.90;;;;;;5074281;28;20031;-83
2023/12/14 03:46:36;;;;;;;;;;;15.00;99.90;;;;;;5074195;28;19908;-83
2023/12/14 03:49:03;;;;;;;;;;;14.90;99.90;;;;;;5093001;28;20225;-84
2023/12/14 03:51:29;;;;;;;;;;;15.00;99.90;;;;;;5085653;28;19947;-83
2023/12/14 03:53:55;;;;;;;;;;;15.10;99.90;;;;;;5113276;28;20332;-84
2023/12/14 03:56:22;;;;;;;;;;;15.10;99.90;;;;;;5113643;28;19914;-84
2023/12/14 03:58:48;;;;;;;;;;;15.00;99.90;;;;;;5113557;28;20026;-82
2023/12/14 04:01:20;;;;;;;;;;;15.00;99.90;;;;;;5094889;28;19947;-82
2023/12/14 04:03:47;;;;;;;;;;;15.00;99.90;;;;;;5113463;28;19912;-82
2023/12/14 04:06:13;;;;;;;;;;;15.10;99.90;;;;;;5098025;28;19923;-83
2023/12/14 04:08:39;;;;;;;;;;;15.10;99.90;;;;;;5103295;28;19907;-81
2023/12/14 04:11:07;;;;;;;;;;;15.00;99.90;;;;;;5115144;28;19908;-82
2023/12/14 04:13:33;;;;;;;;;;;15.00;99.90;;;;;;5095282;28;20436;-82
2023/12/14 04:15:58;;;;;;;;;;;14.90;99.90;;;;;;5096374;28;19911;-82
2023/12/14 04:18:24;;;;;;;;;;;14.80;99.90;;;;;;5120050;28;19920;-83
2023/12/14 04:20:50;;;;;;;;;;;14.80;99.90;;;;;;5096424;28;19908;-82
2023/12/14 04:23:16;;;;;;;;;;;14.80;99.90;;;;;;5113697;28;19930;-83
2023/12/14 04:25:42;;;;;;;;;;;14.80;99.90;;;;;;5114332;28;20339;-84
2023/12/14 04:28:08;;;;;;;;;;;14.80;99.90;;;;;;5095697;28;20019;-85
2023/12/14 04:30:33;;;;;;;;;;;14.80;99.90;;;;;;5095955;28;19908;-84
2023/12/14 04:33:02;;;;;;;;;;;14.80;99.90;;;;;;5114399;28;19924;-78
2023/12/14 04:35:27;;;;;;;;;;;14.80;99.90;;;;;;5113795;28;20277;-84
2023/12/14 04:37:53;;;;;;;;;;;15.00;99.90;;;;;;5095320;28;19912;-84
2023/12/14 04:40:20;;;;;;;;;;;14.90;99.90;;;;;;5113543;28;19955;-82
2023/12/14 04:42:46;;;;;;;;;;;14.80;99.90;;;;;;5094916;28;19908;-85
2023/12/14 04:45:12;;;;;;;;;;;14.80;99.90;;;;;;5110693;28;20356;-84
2023/12/14 04:47:39;;;;;;;;;;;14.80;99.90;;;;;;5113244;28;19912;-81
2023/12/14 04:50:08;;;;;;;;;;;14.80;99.90;;;;;;5094827;28;19908;-78
2023/12/14 04:52:38;;;;;;;;;;;14.80;99.90;;;;;;5112208;28;20322;-80
2023/12/14 04:55:04;;;;;;;;;;;14.80;99.90;;;;;;5113653;28;19915;-83
2023/12/14 04:57:29;;;;;;;;;;;14.80;99.90;;;;;;5113631;28;20311;-84
2023/12/14 04:59:55;;;;;;;;;;;14.80;99.90;;;;;;5114133;28;19950;-85
2023/12/14 05:02:21;;;;;;;;;;;14.80;99.90;;;;;;5129823;27;20014;-85
2023/12/14 05:04:49;;;;;;;;;;;14.70;99.90;;;;;;5095639;28;19912;-81
2023/12/14 05:07:15;;;;;;;;;;;14.70;99.90;;;;;;5112121;28;19916;-84
2023/12/14 05:09:41;;;;;;;;;;;14.80;99.90;;;;;;5093714;28;19935;-86
2023/12/14 05:12:07;;;;;;;;;;;14.80;99.90;;;;;;5111073;28;19912;-84
2023/12/14 05:14:32;;;;;;;;;;;14.80;99.90;;;;;;5094161;28;19908;-83
2023/12/14 05:16:59;;;;;;;;;;;14.80;99.90;;;;;;5093527;28;20467;-79
2023/12/14 05:19:25;;;;;;;;;;;14.80;99.90;;;;;;5096082;28;19939;-84
2023/12/14 05:21:51;;;;;;;;;;;14.80;99.90;;;;;;5114693;28;20344;-83
2023/12/14 05:24:16;;;;;;;;;;;14.80;99.90;;;;;;5096147;28;19912;-83
2023/12/14 05:26:42;;;;;;;;;;;14.90;99.90;;;;;;5114488;28;19908;-83
2023/12/14 05:29:08;;;;;;;;;;;15.00;99.90;;;;;;5114719;28;20007;-84
2023/12/14 05:31:34;;;;;;;;;;;15.00;99.90;;;;;;5114651;28;19926;-83
2023/12/14 05:33:59;;;;;;;;;;;15.00;99.90;;;;;;5114718;28;19908;-83
2023/12/14 05:36:25;;;;;;;;;;;15.10;99.90;;;;;;5096240;28;19915;-83
2023/12/14 05:38:51;;;;;;;;;;;15.10;99.90;;;;;;5114600;28;19923;-81
2023/12/14 05:41:17;;;;;;;;;;;15.10;99.90;;;;;;5114458;28;20379;-82
2023/12/14 05:43:43;;;;;;;;;;;15.10;99.90;;;;;;5114401;28;19907;-83
2023/12/14 05:46:08;;;;;;;;;;;15.10;99.90;;;;;;5114482;28;20010;-85
2023/12/14 05:48:34;;;;;;;;;;;15.10;99.90;;;;;;5095881;28;20360;-84
2023/12/14 05:51:01;;;;;;;;;;;15.00;99.90;;;;;;5094769;28;19912;-85
2023/12/14 05:53:27;;;;;;;;;;;15.00;99.90;;;;;;5096070;28;19912;-84
2023/12/14 05:55:53;;;;;;;;;;;14.90;99.90;;;;;;5113999;28;19998;-84
2023/12/14 05:58:19;;;;;;;;;;;15.00;99.90;;;;;;5114607;28;19942;-84
2023/12/14 06:00:44;;;;;;;;;;;15.10;99.90;;;;;;5115071;28;19908;-84
2023/12/14 06:03:10;;;;;;;;;;;15.10;99.90;;;;;;5113955;28;19915;-83
2023/12/14 06:05:36;;;;;;;;;;;15.10;99.90;;;;;;5095509;28;20421;-80
2023/12/14 06:08:02;;;;;;;;;;;15.20;99.90;;;;;;5113780;28;19955;-77
2023/12/14 06:10:29;;;;;;;;;;;15.20;99.90;;;;;;5114318;28;20060;-74
2023/12/14 06:12:54;;;;;;;;;;;15.20;99.90;;;;;;5113458;28;20006;-73
2023/12/14 06:15:20;;;;;;;;;;;15.20;99.90;;;;;;5113826;28;19991;-73
2023/12/14 06:17:46;;;;;;;;;;;15.20;99.90;;;;;;5113239;28;19916;-73
2023/12/14 06:20:13;;;;;;;;;;;15.30;99.90;;;;;;5113575;28;19915;-79
2023/12/14 06:22:39;;;;;;;;;;;15.30;99.90;;;;;;5095048;28;20345;-79
2023/12/14 06:25:05;;;;;;;;;;;15.30;99.90;;;;;;5113536;28;19983;-79
2023/12/14 06:27:31;;;;;;;;;;;15.30;99.90;;;;;;5096399;28;20363;-79
2023/12/14 06:29:57;;;;;;;;;;;15.40;99.90;;;;;;5098636;28;19908;-79
2023/12/14 06:32:23;;;;;;;;;;;15.40;99.90;;;;;;5094948;28;20357;-80
2023/12/14 06:34:49;;;;;;;;;;;15.30;99.90;;;;;;5096273;28;19913;-79
2023/12/14 06:37:14;;;;;;;;;;;15.30;99.90;;;;;;5096018;28;20372;-79
2023/12/14 06:39:43;;;;;;;;;;;15.20;99.90;;;;;;5077920;28;19962;-75
2023/12/14 06:42:09;;;;;;;;;;;15.50;99.90;;;;;;5096748;28;19915;-79
2023/12/14 06:44:35;;;;;;;;;;;15.60;99.90;;;;;;5096098;28;19953;-79
2023/12/14 06:47:01;;;;;;;;;;;16.00;99.90;;;;;;5096002;28;19908;-80
2023/12/14 06:49:27;;;;;;;;;;;16.30;99.90;;;;;;5095569;28;19915;-79
2023/12/14 06:51:52;;;;;;;;;;;16.50;99.90;;;;;;5105826;28;19916;-79
2023/12/14 06:54:19;;;;;;;;;;;16.90;99.90;;;;;;5094773;28;19916;-80
2023/12/14 06:56:44;;;;;;;;;;;17.20;99.90;;;;;;5095229;28;19908;-80
2023/12/14 06:59:10;;;;;;;;;;;17.50;99.90;;;;;;5076377;28;20031;-80
2023/12/14 07:01:36;;;;;;;;;;;17.80;99.90;;;;;;5095734;28;19937;-79
2023/12/14 07:04:05;;;;;;;;;;;18.10;99.90;;;;;;5078828;28;20391;-77
2023/12/14 07:06:31;;;;;;;;;;;18.40;99.90;;;;;;5088492;28;20364;-80
2023/12/14 07:08:57;;;;;;;;;;;18.90;99.90;;;;;;5094662;28;19935;-81
2023/12/14 07:11:22;;;;;;;;;;;19.20;99.90;;;;;;5077363;28;19919;-80
2023/12/14 07:13:48;;;;;;;;;;;19.50;99.90;;;;;;5076331;28;19912;-80
2023/12/14 07:16:14;;;;;;;;;;;19.60;99.90;;;;;;5095352;28;19908;-80
2023/12/14 07:18:47;;;;;;;;;;;19.60;99.90;;;;;;5094931;28;19935;-80
2023/12/14 07:21:12;;;;;;;;;;;19.60;99.90;;;;;;5103916;28;20381;-80
2023/12/14 07:23:38;;;;;;;;;;;19.60;99.90;;;;;;5115931;28;19941;-80
2023/12/14 07:26:04;;;;;;;;;;;19.80;99.90;;;;;;5113790;28;19915;-81
2023/12/14 07:28:30;;;;;;;;;;;20.00;99.90;;;;;;5094782;28;20328;-80
2023/12/14 07:30:56;;;;;;;;;;;19.90;99.90;;;;;;5095245;28;19912;-81
2023/12/14 07:33:21;;;;;;;;;;;20.10;99.90;;;;;;5084472;28;20296;-79
2023/12/14 07:35:47;;;;;;;;;;;20.30;99.90;;;;;;5075019;28;19908;-82
2023/12/14 07:38:13;;;;;;;;;;;20.70;99.90;;;;;;5074419;28;19959;-79
2023/12/14 07:40:40;;;;;;;;;;;20.90;99.90;;;;;;5074304;28;20406;-79
2023/12/14 07:43:06;;;;;;;;;;;20.50;99.90;;;;;;5074660;28;20007;-79
2023/12/14 07:45:31;;;;;;;;;;;20.40;99.90;;;;;;5074598;28;19966;-79
2023/12/14 07:48:00;;;;;;;;;;;20.30;99.90;;;;;;5074763;28;19930;-78
2023/12/14 07:50:26;;;;;;;;;;;20.10;99.90;;;;;;5058341;28;20058;-78
2023/12/14 07:52:52;;;;;;;;;;;20.10;99.90;;;;;;5106779;28;19915;-78
2023/12/14 07:55:18;;;;;;;;;;;20.00;99.90;;;;;;5114978;28;19907;-78
2023/12/14 07:57:44;;;;;;;;;;;19.80;99.90;;;;;;5096426;28;19918;-78
2023/12/14 08:00:10;;;;;;;;;;;19.60;99.90;;;;;;5114821;28;19914;-79
2023/12/14 08:02:42;;;;;;;;;;;19.30;99.90;;;;;;5110584;28;19912;-77
2023/12/14 08:05:09;;;;;;;;;;;19.10;99.90;;;;;;5076319;28;19988;-78
2023/12/14 08:07:35;;;;;;;;;;;19.10;99.90;;;;;;5094196;28;19942;-78
2023/12/14 08:10:00;;;;;;;;;;;18.80;99.90;;;;;;5094397;28;20281;-77
2023/12/14 08:12:26;;;;;;;;;;;18.70;99.90;;;;;;5094410;28;19914;-78
2023/12/14 08:14:52;;;;;;;;;;;18.60;99.90;;;;;;5075911;28;19954;-79
2023/12/14 08:17:19;;;;;;;;;;;18.50;99.90;;;;;;5093936;28;19989;-73
2023/12/14 08:19:45;;;;;;;;;;;18.40;99.90;;;;;;5085365;28;19979;-79
2023/12/14 08:22:12;;;;;;;;;;;18.50;99.90;;;;;;5093487;28;20335;-79
2023/12/14 08:24:41;;;;;;;;;;;18.60;99.90;;;;;;5092765;28;19908;-78
2023/12/14 08:27:07;;;;;;;;;;;18.80;99.90;;;;;;5087800;28;20038;-79
2023/12/14 08:29:33;;;;;;;;;;;19.10;99.90;;;;;;5074685;28;20338;-75
2023/12/14 08:31:59;;;;;;;;;;;19.40;99.90;;;;;;5074990;28;19949;-79
2023/12/14 08:34:28;;;;;;;;;;;19.60;99.90;;;;;;5075264;28;20347;-80
2023/12/14 08:36:54;;;;;;;;;;;19.90;99.90;;;;;;5092963;28;19915;-80
2023/12/14 08:39:20;;;;;;;;;;;20.10;99.90;;;;;;5092843;28;19916;-79
2023/12/14 08:41:46;;;;;;;;;;;20.10;99.90;;;;;;5093763;28;19920;-80
2023/12/14 08:44:12;;;;;;;;;;;20.10;99.90;;;;;;5093513;28;19908;-80
2023/12/14 08:46:42;;;;;;;;;;;20.20;99.90;;;;;;5093565;28;19931;-80
2023/12/14 08:49:08;;;;;;;;;;;20.20;99.90;;;;;;5092963;28;20321;-80
2023/12/14 08:51:34;;;;;;;;;;;19.90;99.90;;;;;;5092453;28;19908;-82
2023/12/14 08:53:59;;;;;;;;;;;19.90;99.90;;;;;;5093104;28;20101;-79
2023/12/14 08:56:25;;;;;;;;;;;19.90;99.90;;;;;;5092772;28;20364;-79
2023/12/14 08:58:52;;;;;;;;;;;20.00;99.90;;;;;;5074353;28;19916;-81
2023/12/14 09:01:21;;;;;;;;;;;19.90;99.90;;;;;;5092826;28;20364;-80
2023/12/14 09:03:47;;;;;;;;;;;20.00;99.90;;;;;;5092816;28;19912;-79
2023/12/14 09:06:14;;;;;;;;;;;20.00;99.90;;;;;;5093494;28;19935;-80
2023/12/14 09:08:40;;;;;;;;;;;20.00;99.90;;;;;;5075002;28;19916;-78
2023/12/14 09:11:06;;;;;;;;;;;20.20;99.90;;;;;;5074468;28;19908;-79
2023/12/14 09:13:33;;;;;;;;;;;20.50;99.90;;;;;;5092825;28;19915;-79
2023/12/14 09:15:59;;;;;;;;;;;20.70;99.90;;;;;;5074658;28;20276;-78
2023/12/14 09:18:24;;;;;;;;;;;20.70;99.90;;;;;;5074593;28;20066;-79
2023/12/14 09:20:50;;;;;;;;;;;20.80;99.90;;;;;;5093243;28;19927;-80
2023/12/14 09:23:16;;;;;;;;;;;20.90;99.90;;;;;;5093307;28;20002;-80
2023/12/14 09:25:42;;;;;;;;;;;21.10;99.90;;;;;;5092781;28;19908;-78
2023/12/14 09:28:08;;;;;;;;;;;21.30;99.90;;;;;;5093040;28;20260;-79
2023/12/14 09:30:34;;;;;;;;;;;21.40;99.90;;;;;;5092943;28;19908;-78
2023/12/14 09:32:59;;;;;;;;;;;21.50;99.90;;;;;;5093502;28;19933;-79
2023/12/14 09:35:26;;;;;;;;;;;21.50;99.90;;;;;;5112398;28;20385;-81
2023/12/14 09:37:52;;;;;;;;;;;21.60;99.90;;;;;;5093756;28;19916;-78
2023/12/14 09:40:19;;;;;;;;;;;21.60;99.90;;;;;;5112663;28;20293;-79
2023/12/14 09:42:44;;;;;;;;;;;21.60;99.90;;;;;;5112415;28;19908;-79
2023/12/14 09:45:11;;;;;;;;;;;21.60;99.90;;;;;;5112284;28;19915;-79
2023/12/14 09:47:37;;;;;;;;;;;21.70;99.90;;;;;;5112309;28;20332;-79
2023/12/14 09:50:05;;;;;;;;;;;21.70;99.90;;;;;;5111910;28;19998;-79
2023/12/14 09:52:31;;;;;;;;;;;21.60;99.90;;;;;;5112512;28;19908;-79
2023/12/14 09:54:56;;;;;;;;;;;21.60;99.90;;;;;;5113472;28;19946;-80
2023/12/14 09:57:24;;;;;;;;;;;21.30;99.90;;;;;;5094311;28;19908;-80
2023/12/14 09:59:53;;;;;;;;;;;21.00;99.90;;;;;;5112893;28;19954;-79
2023/12/14 10:02:20;;;;;;;;;;;20.80;99.90;;;;;;5114287;28;20004;-80
2023/12/14 10:04:46;;;;;;;;;;;21.00;99.90;;;;;;5117368;28;19912;-80
2023/12/14 10:07:12;;;;;;;;;;;21.00;99.90;;;;;;5116946;28;19914;-80
2023/12/14 10:09:38;;;;;;;;;;;20.80;99.90;;;;;;5117301;28;19907;-80
2023/12/14 10:12:05;;;;;;;;;;;20.70;99.90;;;;;;5098459;28;19930;-79
2023/12/14 10:14:31;;;;;;;;;;;20.70;99.90;;;;;;5098309;28;19907;-79
2023/12/14 10:16:58;;;;;;;;;;;21.00;99.90;;;;;;5098427;28;19908;-80
2023/12/14 10:19:23;;;;;;;;;;;21.00;99.90;;;;;;5098302;28;20055;-81
2023/12/14 10:21:50;;;;;;;;;;;21.00;99.90;;;;;;5098527;28;19990;-79
2023/12/14 10:24:16;;;;;;;;;;;21.00;99.90;;;;;;5116876;28;19908;-79
2023/12/14 10:26:44;;;;;;;;;;;20.90;99.90;;;;;;5116772;28;20052;-79
2023/12/14 10:29:10;;;;;;;;;;;20.90;99.90;;;;;;5116226;28;19961;-80
2023/12/14 10:31:39;;;;;;;;;;;20.70;99.90;;;;;;5094123;28;19920;-81
2023/12/14 10:34:05;;;;;;;;;;;20.60;99.90;;;;;;5108139;28;19908;-80
2023/12/14 10:36:32;;;;;;;;;;;20.60;99.90;;;;;;5097835;28;19972;-79
2023/12/14 10:38:58;;;;;;;;;;;20.70;99.90;;;;;;5098576;28;19916;-77
2023/12/14 10:41:24;;;;;;;;;;;20.50;99.90;;;;;;5098167;28;19919;-79
2023/12/14 10:43:52;;;;;;;;;;;20.10;99.90;;;;;;5116202;28;19908;-79
2023/12/14 10:46:19;;;;;;;;;;;20.10;99.90;;;;;;5116760;28;19907;-79
2023/12/14 10:48:47;;;;;;;;;;;20.20;99.90;;;;;;5116510;28;19907;-81
2023/12/14 10:51:13;;;;;;;;;;;20.40;99.90;;;;;;5097925;28;20385;-79
2023/12/14 10:53:39;;;;;;;;;;;20.50;99.90;;;;;;5115951;28;19976;-80
2023/12/14 10:56:10;;;;;;;;;;;20.70;99.90;;;;;;5116331;28;19931;-81
2023/12/14 10:58:46;;;;;;;;;;;20.80;99.90;;;;;;5116135;28;19911;-79
2023/12/14 11:01:16;;;;;;;;;;;20.70;99.90;;;;;;5097736;28;19908;-80
2023/12/14 11:03:44;;;;;;;;;;;20.60;99.90;;;;;;5116063;28;19919;-83
2023/12/14 11:06:28;;;;;;;;;;;20.30;99.90;;;;;;5116759;28;19912;-81
2023/12/14 11:08:56;;;;;;;;;;;20.30;99.90;;;;;;5096923;28;20247;-80
2023/12/14 11:11:22;;;;;;;;;;;20.20;99.90;;;;;;5097773;28;19999;-79
2023/12/14 11:13:50;;;;;;;;;;;20.30;99.90;;;;;;5115744;28;19951;-80
2023/12/14 11:16:16;;;;;;;;;;;20.40;99.90;;;;;;5116491;28;20317;-80
2023/12/14 11:18:42;;;;;;;;;;;20.60;99.90;;;;;;5122044;28;19916;-79
2023/12/14 11:21:08;;;;;;;;;;;20.50;99.90;;;;;;5121807;28;20036;-75
2023/12/14 11:23:36;;;;;;;;;;;20.60;99.90;;;;;;5117404;28;19912;-80
2023/12/14 11:26:04;;;;;;;;;;;20.50;99.90;;;;;;5098512;28;20356;-81
2023/12/14 11:28:30;;;;;;;;;;;20.20;99.90;;;;;;5116640;28;19953;-80
2023/12/14 11:30:56;;;;;;;;;;;20.10;99.90;;;;;;5116393;28;19915;-79
2023/12/14 11:33:22;;;;;;;;;;;20.30;99.90;;;;;;5115947;28;19931;-80
2023/12/14 11:35:50;;;;;;;;;;;20.30;99.90;;;;;;5116403;28;19931;-79
2023/12/14 11:38:17;;;;;;;;;;;20.30;99.90;;;;;;5115921;28;19916;-79
2023/12/14 11:40:43;;;;;;;;;;;20.40;99.90;;;;;;5116034;28;19958;-80
2023/12/14 11:43:10;;;;;;;;;;;20.50;99.90;;;;;;5115285;28;19918;-80
2023/12/14 11:45:36;;;;;;;;;;;20.60;99.90;;;;;;5096677;28;19908;-80
2023/12/14 11:48:05;;;;;;;;;;;20.50;99.90;;;;;;5096184;28;19962;-80
2023/12/14 11:50:32;;;;;;;;;;;20.40;99.90;;;;;;5096305;28;19973;-79
2023/12/14 11:52:57;;;;;;;;;;;20.20;99.90;;;;;;5096763;28;19908;-78
2023/12/14 11:55:23;;;;;;;;;;;20.20;99.90;;;;;;5114965;28;19915;-81
2023/12/14 11:57:49;;;;;;;;;;;20.40;99.90;;;;;;5114952;28;19973;-81
2023/12/14 12:00:15;;;;;;;;;;;20.40;99.90;;;;;;5114942;28;19919;-80
2023/12/14 12:02:41;;;;;;;;;;;20.10;99.90;;;;;;5114109;28;19907;-81
2023/12/14 12:05:07;;;;;;;;;;;19.60;99.90;;;;;;5113972;28;19958;-79
2023/12/14 12:07:33;;;;;;;;;;;19.70;99.90;;;;;;5114304;28;20375;-79
2023/12/14 12:09:59;;;;;;;;;;;19.90;99.90;;;;;;5114125;28;19961;-79
2023/12/14 12:12:24;;;;;;;;;;;19.90;99.90;;;;;;5114641;28;19907;-79
2023/12/14 12:14:54;;;;;;;;;;;19.80;99.90;;;;;;5094997;28;19961;-78
2023/12/14 12:17:19;;;;;;;;;;;19.80;99.90;;;;;;5114432;28;19935;-78
2023/12/14 12:19:46;;;;;;;;;;;19.50;99.90;;;;;;5114953;28;20350;-79
2023/12/14 12:22:12;;;;;;;;;;;19.50;99.90;;;;;;5114584;28;19908;-73
2023/12/14 12:24:38;;;;;;;;;;;19.60;99.90;;;;;;5114081;28;20371;-73
2023/12/14 12:27:04;;;;;;;;;;;19.80;99.90;;;;;;5114172;28;19936;-72
2023/12/14 12:29:30;;;;;;;;;;;19.90;99.90;;;;;;5095734;28;20296;-73
2023/12/14 12:31:57;;;;;;;;;;;19.90;99.90;;;;;;5114252;28;19941;-74
2023/12/14 12:34:24;;;;;;;;;;;19.80;99.90;;;;;;5114144;28;19908;-73
2023/12/14 12:36:50;;;;;;;;;;;19.80;99.90;;;;;;5113941;28;19919;-73
2023/12/14 12:39:15;;;;;;;;;;;19.50;99.90;;;;;;5095190;28;19916;-75
2023/12/14 12:41:42;;;;;;;;;;;19.50;99.90;;;;;;5113941;28;20355;-74
2023/12/14 12:44:09;;;;;;;;;;;19.50;99.90;;;;;;5113640;28;20006;-75
2023/12/14 12:46:35;;;;;;;;;;;19.40;99.90;;;;;;5095357;28;19954;-73
2023/12/14 12:49:02;;;;;;;;;;;19.30;99.90;;;;;;5094963;28;19908;-74
2023/12/14 12:51:28;;;;;;;;;;;19.20;99.90;;;;;;5114171;28;19963;-74
2023/12/14 12:53:54;;;;;;;;;;;19.30;99.90;;;;;;5114583;28;20417;-74
2023/12/14 12:56:20;;;;;;;;;;;19.20;99.90;;;;;;5114132;28;19907;-75
2023/12/14 12:58:46;;;;;;;;;;;19.10;99.90;;;;;;5114293;28;19919;-73
2023/12/14 13:01:12;;;;;;;;;;;18.90;99.90;;;;;;5113665;28;19961;-73
2023/12/14 13:03:38;;;;;;;;;;;18.40;99.90;;;;;;5114031;28;20003;-73
2023/12/14 13:06:04;;;;;;;;;;;18.50;99.90;;;;;;5114132;28;19915;-73
2023/12/14 13:08:30;;;;;;;;;;;18.30;99.90;;;;;;5113773;28;19956;-76
2023/12/14 13:10:56;;;;;;;;;;;18.30;99.90;;;;;;5114623;28;20363;-76
2023/12/14 13:13:22;;;;;;;;;;;18.20;99.90;;;;;;5114030;28;19908;-79
2023/12/14 13:15:48;;;;;;;;;;;18.10;99.90;;;;;;5114224;28;19912;-79
2023/12/14 13:18:16;;;;;;;;;;;18.10;99.90;;;;;;5095601;28;19919;-80
2023/12/14 13:20:42;;;;;;;;;;;18.10;99.90;;;;;;5114069;28;19908;-79
2023/12/14 13:23:08;;;;;;;;;;;18.10;99.90;;;;;;5114076;28;19938;-77
2023/12/14 13:25:35;;;;;;;;;;;18.00;99.90;;;;;;5096137;28;20302;-75
2023/12/14 13:28:00;;;;;;;;;;;17.90;99.90;;;;;;5095668;28;19911;-76
2023/12/14 13:30:26;;;;;;;;;;;17.60;99.90;;;;;;5114045;28;19928;-77
2023/12/14 13:32:53;;;;;;;;;;;17.60;99.90;;;;;;5113664;28;19949;-77
2023/12/14 13:35:19;;;;;;;;;;;17.70;99.90;;;;;;5095416;28;19951;-76
2023/12/14 13:37:46;;;;;;;;;;;17.80;99.90;;;;;;5113970;28;19951;-77
2023/12/14 13:40:12;;;;;;;;;;;17.80;99.90;;;;;;5113891;28;20389;-75
2023/12/14 13:42:38;;;;;;;;;;;17.70;99.90;;;;;;5113863;28;19927;-75
2023/12/14 13:45:04;;;;;;;;;;;17.60;99.90;;;;;;5113577;28;20021;-76
2023/12/14 13:47:30;;;;;;;;;;;17.50;99.90;;;;;;5113729;28;20056;-76
2023/12/14 13:49:56;;;;;;;;;;;17.40;99.90;;;;;;5113235;28;19908;-71
2023/12/14 13:52:22;;;;;;;;;;;17.40;99.90;;;;;;5113416;28;20328;-77
2023/12/14 13:54:48;;;;;;;;;;;17.30;99.90;;;;;;5113442;28;19912;-76
2023/12/14 13:57:14;;;;;;;;;;;17.20;99.90;;;;;;5113176;28;19915;-77
2023/12/14 13:59:40;;;;;;;;;;;17.30;99.90;;;;;;5113237;28;19927;-77
2023/12/14 14:02:05;;;;;;;;;;;17.30;99.90;;;;;;5113211;28;19908;-77
2023/12/14 14:04:31;;;;;;;;;;;17.30;99.90;;;;;;5094894;28;19931;-77
2023/12/14 14:06:57;;;;;;;;;;;17.30;99.90;;;;;;5094658;28;19908;-76
2023/12/14 14:09:23;;;;;;;;;;;17.30;99.90;;;;;;5113175;28;19907;-77